createdAt,value
2022-09-10T00:01:10.396Z,100689.78
2022-09-10T00:03:33.601Z,100694.81
2022-09-10T00:05:58.135Z,100691.09
2022-09-10T00:08:21.820Z,100693.50
2022-09-10T00:10:45.959Z,100693.38
2022-09-10T00:13:09.386Z,100693.38
2022-09-10T00:15:32.596Z,100689.25
2022-09-10T00:17:55.770Z,100688.25
2022-09-10T00:20:19.233Z,100685.53
2022-09-10T00:22:43.865Z,100690.09
2022-09-10T00:25:08.629Z,100691.94
2022-09-10T00:27:31.799Z,100688.72
2022-09-10T00:29:55.277Z,100698.34
2022-09-10T00:32:19.123Z,100691.66
2022-09-10T00:34:42.347Z,100697.19
2022-09-10T00:37:05.646Z,100697.19
2022-09-10T00:39:30.252Z,100700.88
2022-09-10T00:41:53.589Z,100697.75
2022-09-10T00:44:54.335Z,100689.56
2022-09-10T00:47:19.252Z,100679.53
2022-09-10T00:49:44.396Z,100687.41
2022-09-10T00:52:07.730Z,100680.63
2022-09-10T00:54:32.710Z,100679.19
2022-09-10T00:56:56.799Z,100686.56
2022-09-10T00:59:22.035Z,100683.03
2022-09-10T01:01:45.383Z,100678.94
2022-09-10T01:04:10.671Z,100672.28
2022-09-10T01:06:33.942Z,100672.41
2022-09-10T01:08:57.338Z,100673.94
2022-09-10T01:11:43.715Z,100664.16
2022-09-10T01:14:16.143Z,100655.28
2022-09-10T01:16:41.339Z,100641.78
2022-09-10T01:19:09.416Z,100652.28
2022-09-10T01:21:34.013Z,100659.91
2022-09-10T01:24:25.705Z,100651.00
2022-09-10T01:27:03.505Z,100657.75
2022-09-10T01:29:29.567Z,100656.91
2022-09-10T01:31:54.846Z,100656.06
2022-09-10T01:34:20.198Z,100655.38
2022-09-10T01:36:48.223Z,100638.69
2022-09-10T01:39:12.827Z,100654.22
2022-09-10T01:41:37.112Z,100645.59
2022-09-10T01:44:09.510Z,100640.75
2022-09-10T01:46:41.554Z,100636.38
2022-09-10T01:49:11.342Z,100643.31
2022-09-10T01:51:41.947Z,100636.91
2022-09-10T01:54:14.954Z,100624.78
2022-09-10T01:56:41.739Z,100634.72
2022-09-10T01:59:07.336Z,100641.78
2022-09-10T02:01:41.739Z,100622.22
2022-09-10T02:04:06.430Z,100632.13
2022-09-10T02:06:30.995Z,100627.13
2022-09-10T02:08:56.731Z,100628.66
2022-09-10T02:11:21.942Z,100621.22
2022-09-10T02:13:47.033Z,100619.66
2022-09-10T02:16:13.767Z,100621.34
2022-09-10T02:18:43.457Z,100626.59
2022-09-10T02:21:06.814Z,100619.94
2022-09-10T02:23:33.914Z,100615.13
2022-09-10T02:25:57.083Z,100619.50
2022-09-10T02:28:24.222Z,100615.81
2022-09-10T02:30:48.308Z,100617.25
2022-09-10T02:33:12.110Z,100619.75
2022-09-10T02:35:36.732Z,100616.97
2022-09-10T02:38:00.090Z,100608.88
2022-09-10T02:40:23.363Z,100612.53
2022-09-10T02:42:46.716Z,100611.09
2022-09-10T02:45:14.490Z,100611.69
2022-09-10T02:47:37.661Z,100612.13
2022-09-10T02:50:02.019Z,100609.56
2022-09-10T02:52:27.119Z,100614.84
2022-09-10T02:54:50.423Z,100617.69
2022-09-10T02:57:13.566Z,100615.88
2022-09-10T02:59:37.198Z,100608.03
2022-09-10T03:02:00.789Z,100610.56
2022-09-10T03:04:24.148Z,100611.09
2022-09-10T03:06:49.565Z,100608.94
2022-09-10T03:09:14.205Z,100603.84
2022-09-10T03:11:40.805Z,100603.31
2022-09-10T03:14:03.991Z,100607.56
2022-09-10T03:16:27.862Z,100601.16
2022-09-10T03:18:52.636Z,100600.06
2022-09-10T03:21:18.400Z,100598.81
2022-09-10T03:23:42.125Z,100600.22
2022-09-10T03:26:07.333Z,100607.13
2022-09-10T03:28:31.078Z,100604.59
2022-09-10T03:30:54.572Z,100611.28
2022-09-10T03:33:21.195Z,100616.13
2022-09-10T03:35:44.511Z,100617.63
2022-09-10T03:38:07.754Z,100613.53
2022-09-10T03:40:30.983Z,100616.97
2022-09-10T03:42:55.578Z,100612.00
2022-09-10T03:45:18.775Z,100614.28
2022-09-10T03:47:41.978Z,100617.06
2022-09-10T03:50:05.985Z,100628.41
2022-09-10T03:52:30.116Z,100626.72
2022-09-10T03:54:53.586Z,100628.28
2022-09-10T03:57:16.762Z,100620.03
2022-09-10T03:59:41.465Z,100620.88
2022-09-10T04:02:06.940Z,100623.56
2022-09-10T04:04:31.966Z,100626.25
2022-09-10T04:06:55.271Z,100625.72
2022-09-10T04:09:18.426Z,100623.63
2022-09-10T04:11:41.658Z,100626.59
2022-09-10T04:14:04.857Z,100627.97
2022-09-10T04:16:32.954Z,100618.88
2022-09-10T04:18:56.454Z,100619.72
2022-09-10T04:21:20.296Z,100628.81
2022-09-10T04:23:45.819Z,100623.44
2022-09-10T04:26:14.693Z,100629.53
2022-09-10T04:28:39.668Z,100627.97
2022-09-10T04:31:02.951Z,100627.28
2022-09-10T04:33:27.561Z,100632.34
2022-09-10T04:35:51.348Z,100635.88
2022-09-10T04:38:14.624Z,100633.38
2022-09-10T04:40:40.066Z,100629.53
2022-09-10T04:43:04.942Z,100636.59
2022-09-10T04:45:33.078Z,100631.13
2022-09-10T04:47:56.660Z,100635.66
2022-09-10T04:50:21.945Z,100644.16
2022-09-10T04:53:07.975Z,100642.81
2022-09-10T04:55:33.053Z,100646.53
2022-09-10T04:57:57.719Z,100638.28
2022-09-10T05:00:21.147Z,100646.22
2022-09-10T05:02:44.317Z,100640.97
2022-09-10T05:05:08.614Z,100638.28
2022-09-10T05:07:33.157Z,100645.28
2022-09-10T05:09:57.597Z,100636.38
2022-09-10T05:12:20.794Z,100647.69
2022-09-10T05:14:44.173Z,100641.16
2022-09-10T05:17:07.436Z,100641.69
2022-09-10T05:19:30.621Z,100645.69
2022-09-10T05:21:59.442Z,100644.50
2022-09-10T05:24:24.210Z,100645.69
2022-09-10T05:26:48.430Z,100629.97
2022-09-10T05:29:12.574Z,100633.06
2022-09-10T05:31:37.276Z,100630.06
2022-09-10T05:34:01.175Z,100622.66
2022-09-10T05:36:26.048Z,100621.50
2022-09-10T05:38:49.533Z,100618.50
2022-09-10T05:41:14.249Z,100623.72
2022-09-10T05:43:43.071Z,100627.94
2022-09-10T05:46:08.257Z,100619.88
2022-09-10T05:48:31.593Z,100623.41
2022-09-10T05:50:55.437Z,100630.50
2022-09-10T05:53:18.678Z,100631.34
2022-09-10T05:55:41.887Z,100625.78
2022-09-10T05:58:07.452Z,100636.56
2022-09-10T06:00:33.737Z,100623.94
2022-09-10T06:02:58.324Z,100626.31
2022-09-10T06:05:28.996Z,100624.47
2022-09-10T06:07:52.647Z,100625.34
2022-09-10T06:10:15.870Z,100628.88
2022-09-10T06:12:46.036Z,100632.41
2022-09-10T06:15:11.365Z,100638.16
2022-09-10T06:17:34.787Z,100648.63
2022-09-10T06:19:59.597Z,100643.25
2022-09-10T06:22:24.824Z,100637.53
2022-09-10T06:24:49.352Z,100636.22
2022-09-10T06:27:13.637Z,100646.03
2022-09-10T06:29:37.603Z,100640.31
2022-09-10T06:32:03.793Z,100647.41
2022-09-10T06:34:26.965Z,100643.16
2022-09-10T06:36:50.723Z,100636.22
2022-09-10T06:39:14.377Z,100643.16
2022-09-10T06:41:50.905Z,100645.84
2022-09-10T06:44:32.956Z,100639.63
2022-09-10T06:47:46.204Z,100636.63
2022-09-10T06:49:53.346Z,100639.44
2022-09-10T06:52:18.326Z,100638.28
2022-09-10T06:54:44.274Z,100632.91
2022-09-10T06:57:17.910Z,100629.88
2022-09-10T06:59:41.345Z,100631.91
2022-09-10T07:02:04.633Z,100638.47
2022-09-10T07:04:30.172Z,100633.91
2022-09-10T07:06:54.923Z,100629.22
2022-09-10T07:09:18.103Z,100630.91
2022-09-10T07:11:53.595Z,100633.59
2022-09-10T07:14:18.043Z,100642.53
2022-09-10T07:16:44.393Z,100640.38
2022-09-10T07:19:07.974Z,100648.84
2022-09-10T07:21:39.859Z,100645.44
2022-09-10T07:24:06.978Z,100645.75
2022-09-10T07:26:31.813Z,100638.38
2022-09-10T07:28:56.133Z,100643.09
2022-09-10T07:31:20.865Z,100644.13
2022-09-10T07:33:44.857Z,100653.91
2022-09-10T07:36:08.503Z,100641.41
2022-09-10T07:38:34.346Z,100645.81
2022-09-10T07:41:00.562Z,100648.50
2022-09-10T07:43:25.156Z,100658.69
2022-09-10T07:45:51.478Z,100648.22
2022-09-10T07:48:14.779Z,100640.13
2022-09-10T07:50:38.361Z,100642.97
2022-09-10T07:53:01.792Z,100646.50
2022-09-10T07:55:27.005Z,100644.97
2022-09-10T07:57:50.283Z,100647.66
2022-09-10T08:00:15.549Z,100638.41
2022-09-10T08:02:39.101Z,100635.72
2022-09-10T08:05:04.374Z,100644.22
2022-09-10T08:07:31.320Z,100646.91
2022-09-10T08:09:54.735Z,100635.25
2022-09-10T08:12:19.360Z,100626.78
2022-09-10T08:14:43.820Z,100627.84
2022-09-10T08:17:07.814Z,100630.72
2022-09-10T08:19:36.731Z,100629.53
2022-09-10T08:22:00.450Z,100639.66
2022-09-10T08:24:28.925Z,100644.38
2022-09-10T08:26:52.848Z,100646.59
2022-09-10T08:29:17.599Z,100643.72
2022-09-10T08:31:41.482Z,100646.13
2022-09-10T08:34:13.811Z,100638.34
2022-09-10T08:36:40.768Z,100637.31
2022-09-10T08:39:08.133Z,100640.22
2022-09-10T08:41:39.102Z,100637.38
2022-09-10T08:44:13.588Z,100625.91
2022-09-10T08:46:41.983Z,100631.47
2022-09-10T08:49:08.477Z,100627.94
2022-09-10T08:51:31.722Z,100622.31
2022-09-10T08:53:55.886Z,100609.81
2022-09-10T08:56:21.791Z,100623.50
2022-09-10T08:58:46.044Z,100611.03
2022-09-10T09:01:13.162Z,100610.34
2022-09-10T09:03:39.337Z,100606.34
2022-09-10T09:06:03.448Z,100594.66
2022-09-10T09:08:38.101Z,100592.66
2022-09-10T09:11:10.588Z,100601.78
2022-09-10T09:13:53.314Z,100588.13
2022-09-10T09:16:27.362Z,100581.88
2022-09-10T09:19:00.505Z,100577.31
2022-09-10T09:21:27.151Z,100585.28
2022-09-10T09:24:13.702Z,100571.59
2022-09-10T09:26:44.176Z,100571.94
2022-09-10T09:29:08.189Z,100564.53
2022-09-10T09:31:33.507Z,100555.59
2022-09-10T09:34:05.617Z,100548.34
2022-09-10T09:36:32.142Z,100545.47
2022-09-10T09:38:55.584Z,100545.47
2022-09-10T09:41:24.858Z,100520.31
2022-09-10T09:43:52.555Z,100541.75
2022-09-10T09:46:18.453Z,100526.91
2022-09-10T09:48:44.671Z,100528.94
2022-09-10T09:51:11.746Z,100544.44
2022-09-10T09:53:35.565Z,100547.00
2022-09-10T09:56:01.368Z,100543.28
2022-09-10T09:58:32.350Z,100547.84
2022-09-10T10:00:56.029Z,100548.16
2022-09-10T10:03:21.252Z,100542.09
2022-09-10T10:05:44.465Z,100544.28
2022-09-10T10:08:27.843Z,100545.47
2022-09-10T10:10:52.715Z,100537.22
2022-09-10T10:13:21.740Z,100540.06
2022-09-10T10:15:44.954Z,100532.81
2022-09-10T10:18:25.973Z,100537.38
2022-09-10T10:20:49.213Z,100533.13
2022-09-10T10:23:31.159Z,100529.44
2022-09-10T10:25:54.596Z,100534.66
2022-09-10T10:28:22.255Z,100525.56
2022-09-10T10:30:45.521Z,100528.44
2022-09-10T10:33:17.440Z,100530.09
2022-09-10T10:35:44.243Z,100524.88
2022-09-10T10:38:25.268Z,100517.63
2022-09-10T10:40:51.555Z,100518.66
2022-09-10T10:43:19.888Z,100511.41
2022-09-10T10:45:49.222Z,100498.75
2022-09-10T10:48:13.034Z,100493.69
2022-09-10T10:50:38.603Z,100495.53
2022-09-10T10:53:21.566Z,100495.72
2022-09-10T10:55:50.395Z,100489.75
2022-09-10T10:58:23.803Z,100503.44
2022-09-10T11:00:48.618Z,100495.53
2022-09-10T11:03:14.578Z,100488.13
2022-09-10T11:05:39.002Z,100493.84
2022-09-10T11:08:05.285Z,100485.25
2022-09-10T11:10:30.628Z,100485.25
2022-09-10T11:12:57.507Z,100496.06
2022-09-10T11:15:25.141Z,100488.97
2022-09-10T11:17:51.653Z,100475.47
2022-09-10T11:20:28.308Z,100468.56
2022-09-10T11:22:54.149Z,100483.41
2022-09-10T11:25:20.541Z,100481.03
2022-09-10T11:27:46.244Z,100484.75
2022-09-10T11:30:12.805Z,100481.03
2022-09-10T11:32:38.491Z,100476.31
2022-09-10T11:35:06.609Z,100481.72
2022-09-10T11:37:35.458Z,100480.69
2022-09-10T11:40:01.162Z,100491.34
2022-09-10T11:42:25.980Z,100481.72
2022-09-10T11:44:54.317Z,100467.53
2022-09-10T11:47:20.673Z,100476.66
2022-09-10T11:49:48.452Z,100476.66
2022-09-10T11:52:12.554Z,100476.66
2022-09-10T11:54:35.892Z,100478.66
2022-09-10T11:57:00.799Z,100464.00
2022-09-10T11:59:43.152Z,100459.09
2022-09-10T12:02:30.139Z,100452.69
2022-09-10T12:04:56.878Z,100446.47
2022-09-10T12:07:26.981Z,100451.84
2022-09-10T12:09:53.847Z,100446.63
2022-09-10T12:12:20.371Z,100436.69
2022-09-10T12:14:43.613Z,100427.75
2022-09-10T12:17:08.880Z,100428.75
2022-09-10T12:19:36.161Z,100432.78
2022-09-10T12:21:59.912Z,100429.41
2022-09-10T12:24:26.804Z,100424.16
2022-09-10T12:26:49.972Z,100425.88
2022-09-10T12:29:30.672Z,100421.00
2022-09-10T12:32:17.182Z,100415.41
2022-09-10T12:34:41.928Z,100411.03
2022-09-10T12:37:10.751Z,100401.09
2022-09-10T12:39:34.545Z,100398.41
2022-09-10T12:42:01.807Z,100405.47
2022-09-10T12:44:45.103Z,100403.59
2022-09-10T12:47:41.171Z,100392.66
2022-09-10T12:50:07.400Z,100387.28
2022-09-10T12:52:45.546Z,100383.72
2022-09-10T12:55:12.571Z,100385.59
2022-09-10T12:57:36.825Z,100380.19
2022-09-10T13:00:12.974Z,100375.63
2022-09-10T13:02:36.812Z,100380.19
2022-09-10T13:05:01.943Z,100387.59
2022-09-10T13:07:28.194Z,100369.03
2022-09-10T13:09:57.911Z,100364.81
2022-09-10T13:12:22.109Z,100361.28
2022-09-10T13:14:47.100Z,100344.06
2022-09-10T13:17:31.312Z,100355.03
2022-09-10T13:19:55.293Z,100357.56
2022-09-10T13:22:48.467Z,100367.03
2022-09-10T13:25:26.508Z,100357.91
2022-09-10T13:27:49.944Z,100366.34
2022-09-10T13:30:17.598Z,100367.03
2022-09-10T13:32:42.381Z,100367.19
2022-09-10T13:35:31.538Z,100347.47
2022-09-10T13:38:18.884Z,100345.59
2022-09-10T13:40:58.891Z,100347.47
2022-09-10T13:43:43.178Z,100345.09
2022-09-10T13:46:07.980Z,100339.69
2022-09-10T13:48:35.369Z,100341.56
2022-09-10T13:51:00.913Z,100332.63
2022-09-10T13:53:26.548Z,100335.31
2022-09-10T13:55:55.926Z,100320.66
2022-09-10T13:58:19.928Z,100330.44
2022-09-10T14:00:49.316Z,100322.34
2022-09-10T14:03:16.220Z,100325.19
2022-09-10T14:05:41.260Z,100326.38
2022-09-10T14:08:07.700Z,100314.75
2022-09-10T14:10:32.460Z,100312.72
2022-09-10T14:12:56.109Z,100312.91
2022-09-10T14:15:20.762Z,100307.16
2022-09-10T14:17:45.405Z,100311.88
2022-09-10T14:20:18.256Z,100302.06
2022-09-10T14:22:41.708Z,100304.94
2022-09-10T14:25:05.903Z,100309.31
2022-09-10T14:27:31.857Z,100306.28
2022-09-10T14:29:57.595Z,100321.94
2022-09-10T14:32:28.421Z,100320.97
2022-09-10T14:34:51.763Z,100319.25
2022-09-10T14:37:32.783Z,100322.78
2022-09-10T14:39:56.758Z,100314.00
2022-09-10T14:42:26.040Z,100308.47
2022-09-10T14:44:50.774Z,100300.22
2022-09-10T14:47:15.573Z,100297.53
2022-09-10T14:49:39.716Z,100299.88
2022-09-10T14:52:03.869Z,100312.53
2022-09-10T14:54:27.294Z,100300.91
2022-09-10T14:56:50.575Z,100307.00
2022-09-10T14:59:16.117Z,100301.75
2022-09-10T15:01:41.720Z,100304.94
2022-09-10T15:04:05.085Z,100315.41
2022-09-10T15:06:28.430Z,100308.31
2022-09-10T15:08:52.861Z,100306.59
2022-09-10T15:11:16.506Z,100305.75
2022-09-10T15:13:40.374Z,100303.91
2022-09-10T15:16:06.991Z,100299.38
2022-09-10T15:18:31.764Z,100306.47
2022-09-10T15:20:55.135Z,100306.59
2022-09-10T15:23:19.458Z,100297.53
2022-09-10T15:25:44.275Z,100296.53
2022-09-10T15:28:10.784Z,100302.91
2022-09-10T15:30:36.212Z,100291.59
2022-09-10T15:32:59.496Z,100300.38
2022-09-10T15:35:25.549Z,100293.97
2022-09-10T15:37:48.885Z,100292.28
2022-09-10T15:40:12.892Z,100292.44
2022-09-10T15:42:38.110Z,100295.69
2022-09-10T15:45:01.532Z,100296.69
2022-09-10T15:47:25.432Z,100280.78
2022-09-10T15:49:48.828Z,100285.19
2022-09-10T15:52:13.630Z,100286.38
2022-09-10T15:54:36.989Z,100284.34
2022-09-10T15:57:00.665Z,100284.19
2022-09-10T15:59:24.471Z,100279.63
2022-09-10T16:01:49.413Z,100271.53
2022-09-10T16:04:12.865Z,100270.53
2022-09-10T16:06:38.079Z,100258.03
2022-09-10T16:09:04.074Z,100262.44
2022-09-10T16:11:27.681Z,100267.00
2022-09-10T16:13:51.445Z,100265.16
2022-09-10T16:16:17.280Z,100266.03
2022-09-10T16:18:40.690Z,100266.03
2022-09-10T16:21:11.645Z,100265.16
2022-09-10T16:23:35.313Z,100273.41
2022-09-10T16:26:00.293Z,100272.56
2022-09-10T16:28:23.878Z,100268.16
2022-09-10T16:30:47.599Z,100269.16
2022-09-10T16:33:11.418Z,100268.16
2022-09-10T16:35:35.931Z,100255.53
2022-09-10T16:38:00.773Z,100259.06
2022-09-10T16:40:24.157Z,100257.53
2022-09-10T16:42:49.149Z,100258.38
2022-09-10T16:45:15.802Z,100257.34
2022-09-10T16:47:41.986Z,100264.47
2022-09-10T16:50:05.741Z,100260.06
2022-09-10T16:52:29.149Z,100259.06
2022-09-10T16:54:52.933Z,100261.91
2022-09-10T16:57:16.406Z,100252.16
2022-09-10T16:59:41.359Z,100249.63
2022-09-10T17:02:05.579Z,100253.81
2022-09-10T17:04:29.475Z,100254.66
2022-09-10T17:06:53.250Z,100249.25
2022-09-10T17:09:16.788Z,100249.25
2022-09-10T17:11:40.355Z,100246.56
2022-09-10T17:14:03.803Z,100249.25
2022-09-10T17:16:30.770Z,100250.28
2022-09-10T17:18:58.305Z,100251.31
2022-09-10T17:21:24.760Z,100245.72
2022-09-10T17:23:48.367Z,100251.13
2022-09-10T17:26:11.788Z,100262.75
2022-09-10T17:28:35.177Z,100254.66
2022-09-10T17:30:58.566Z,100260.94
2022-09-10T17:33:27.161Z,100261.06
2022-09-10T17:35:56.674Z,100260.06
2022-09-10T17:38:20.374Z,100260.94
2022-09-10T17:40:47.030Z,100251.97
2022-09-10T17:43:10.396Z,100250.13
2022-09-10T17:45:33.828Z,100251.81
2022-09-10T17:48:00.602Z,100254.50
2022-09-10T17:50:25.508Z,100250.13
2022-09-10T17:52:49.362Z,100249.13
2022-09-10T17:55:12.823Z,100256.22
2022-09-10T17:57:36.195Z,100252.66
2022-09-10T17:59:59.576Z,100254.66
2022-09-10T18:02:22.968Z,100249.25
2022-09-10T18:04:49.750Z,100248.28
2022-09-10T18:07:14.492Z,100244.88
2022-09-10T18:09:37.957Z,100243.03
2022-09-10T18:12:03.970Z,100252.97
2022-09-10T18:14:28.394Z,100246.75
2022-09-10T18:16:59.548Z,100254.50
2022-09-10T18:19:23.064Z,100248.44
2022-09-10T18:21:47.059Z,100246.41
2022-09-10T18:24:13.297Z,100240.19
2022-09-10T18:26:39.649Z,100227.69
2022-09-10T18:29:05.164Z,100239.50
2022-09-10T18:31:29.557Z,100250.28
2022-09-10T18:33:53.942Z,100252.16
2022-09-10T18:36:18.263Z,100263.78
2022-09-10T18:38:41.931Z,100270.19
2022-09-10T18:41:07.165Z,100277.59
2022-09-10T18:43:33.449Z,100275.59
2022-09-10T18:45:56.804Z,100267.81
2022-09-10T18:48:20.242Z,100266.66
2022-09-10T18:50:43.611Z,100266.47
2022-09-10T18:53:06.985Z,100265.44
2022-09-10T18:55:30.363Z,100256.38
2022-09-10T18:57:55.066Z,100260.94
2022-09-10T19:00:19.051Z,100248.28
2022-09-10T19:02:42.448Z,100252.84
2022-09-10T19:05:13.690Z,100257.22
2022-09-10T19:07:37.542Z,100259.91
2022-09-10T19:10:04.302Z,100294.78
2022-09-10T19:12:30.254Z,100336.78
2022-09-10T19:14:55.066Z,100337.78
2022-09-10T19:17:18.644Z,100316.19
2022-09-10T19:19:42.094Z,100319.25
2022-09-10T19:22:07.462Z,100318.22
2022-09-10T19:24:53.536Z,100301.22
2022-09-10T19:27:14.379Z,100301.88
2022-09-10T19:29:37.838Z,100278.75
2022-09-10T19:32:02.354Z,100291.56
2022-09-10T19:34:26.283Z,100306.91
2022-09-10T19:36:49.925Z,100275.88
2022-09-10T19:39:14.094Z,100283.97
2022-09-10T19:41:39.110Z,100259.19
2022-09-10T19:44:02.524Z,100259.88
2022-09-10T19:46:28.306Z,100260.41
2022-09-10T19:48:53.256Z,100266.31
2022-09-10T19:51:17.470Z,100264.41
2022-09-10T19:53:40.627Z,100263.38
2022-09-10T19:56:05.264Z,100251.25
2022-09-10T19:58:28.396Z,100238.31
2022-09-10T20:00:51.574Z,100228.84
2022-09-10T20:03:14.840Z,100244.69
2022-09-10T20:05:42.235Z,100254.66
2022-09-10T20:08:05.557Z,100255.31
2022-09-10T20:10:28.719Z,100260.00
2022-09-10T20:12:51.961Z,100255.63
2022-09-10T20:15:15.240Z,100234.06
2022-09-10T20:17:38.774Z,100232.75
2022-09-10T20:20:03.435Z,100244.03
2022-09-10T20:22:28.059Z,100250.25
2022-09-10T20:24:51.023Z,100261.19
2022-09-10T20:27:14.274Z,100271.34
2022-09-10T20:29:37.770Z,100284.31
2022-09-10T20:32:00.998Z,100280.25
2022-09-10T20:34:24.166Z,100279.38
2022-09-10T20:36:47.855Z,100285.28
2022-09-10T20:39:13.675Z,100300.75
2022-09-10T20:41:37.222Z,100302.94
2022-09-10T20:44:00.978Z,100297.59
2022-09-10T20:46:24.261Z,100305.13
2022-09-10T20:48:49.412Z,100312.69
2022-09-10T20:51:12.991Z,100314.72
2022-09-10T20:53:36.328Z,100316.22
2022-09-10T20:56:06.433Z,100323.00
2022-09-10T20:58:29.580Z,100327.53
2022-09-10T21:00:52.898Z,100334.78
2022-09-10T21:03:16.725Z,100352.78
2022-09-10T21:05:40.076Z,100349.25
2022-09-10T21:08:03.658Z,100340.00
2022-09-10T21:10:26.809Z,100342.84
2022-09-10T21:12:51.411Z,100350.59
2022-09-10T21:15:14.381Z,100350.22
2022-09-10T21:17:38.157Z,100341.81
2022-09-10T21:20:03.196Z,100351.25
2022-09-10T21:22:26.359Z,100347.53
2022-09-10T21:24:49.595Z,100356.50
2022-09-10T21:27:12.747Z,100356.31
2022-09-10T21:29:37.342Z,100354.63
2022-09-10T21:32:00.476Z,100342.50
2022-09-10T21:34:23.686Z,100329.34
2022-09-10T21:36:46.813Z,100329.22
2022-09-10T21:39:13.744Z,100332.25
2022-09-10T21:41:39.520Z,100329.34
2022-09-10T21:44:03.689Z,100314.84
2022-09-10T21:46:28.609Z,100310.72
2022-09-10T21:48:51.871Z,100321.91
2022-09-10T21:51:16.274Z,100311.84
2022-09-10T21:53:39.657Z,100301.81
2022-09-10T21:56:03.897Z,100300.88
2022-09-10T21:58:27.966Z,100306.13
2022-09-10T22:00:51.133Z,100311.50
2022-09-10T22:03:16.543Z,100305.94
2022-09-10T22:05:39.780Z,100305.69
2022-09-10T22:08:03.336Z,100306.91
2022-09-10T22:10:26.630Z,100300.19
2022-09-10T22:12:49.929Z,100300.31
2022-09-10T22:15:13.489Z,100307.19
2022-09-10T22:17:36.670Z,100301.59
2022-09-10T22:20:01.219Z,100297.44
2022-09-10T22:22:24.501Z,100292.81
2022-09-10T22:24:47.638Z,100300.31
2022-09-10T22:27:10.821Z,100290.00
2022-09-10T22:29:34.014Z,100293.84
2022-09-10T22:31:57.257Z,100293.84
2022-09-10T22:34:20.802Z,100292.47
2022-09-10T22:36:46.027Z,100287.94
2022-09-10T22:39:11.769Z,100281.28
2022-09-10T22:41:36.344Z,100280.34
2022-09-10T22:43:59.286Z,100306.28
2022-09-10T22:46:24.077Z,100313.22
2022-09-10T22:48:47.486Z,100306.97
2022-09-10T22:51:14.621Z,100303.50
2022-09-10T22:53:40.223Z,100267.00
2022-09-10T22:56:03.893Z,100277.44
2022-09-10T22:58:28.135Z,100263.78
2022-09-10T23:00:51.292Z,100249.22
2022-09-10T23:03:14.747Z,100256.97
2022-09-10T23:05:37.919Z,100260.88
2022-09-10T23:08:01.196Z,100262.19
2022-09-10T23:10:25.754Z,100240.56
2022-09-10T23:12:49.020Z,100238.91
2022-09-10T23:15:12.335Z,100231.56
2022-09-10T23:17:35.578Z,100242.97
2022-09-10T23:19:58.715Z,100246.28
2022-09-10T23:22:22.104Z,100239.81
2022-09-10T23:24:45.245Z,100239.72
2022-09-10T23:27:09.809Z,100239.59
2022-09-10T23:29:33.070Z,100236.56
2022-09-10T23:31:56.212Z,100245.19
2022-09-10T23:34:19.790Z,100235.22
2022-09-10T23:36:44.751Z,100232.22
2022-09-10T23:39:09.732Z,100231.88
2022-09-10T23:41:32.940Z,100235.03
2022-09-10T23:43:57.518Z,100239.13
2022-09-10T23:46:20.741Z,100239.44
2022-09-10T23:48:43.926Z,100243.59
2022-09-10T23:51:07.653Z,100247.34
2022-09-10T23:53:30.793Z,100241.78
2022-09-10T23:55:54.469Z,100234.91
2022-09-10T23:58:19.896Z,100247.69
